createdAt,value
2022-08-04T00:02:05.284Z,22.27
2022-08-04T00:04:31.684Z,22.27
2022-08-04T00:06:58.051Z,22.25
2022-08-04T00:09:24.519Z,22.24
2022-08-04T00:11:50.921Z,22.23
2022-08-04T00:14:17.387Z,22.18
2022-08-04T00:16:43.745Z,22.14
2022-08-04T00:19:10.129Z,22.11
2022-08-04T00:21:36.491Z,22.08
2022-08-04T00:24:11.330Z,22.05
2022-08-04T00:26:29.243Z,22.04
2022-08-04T00:28:55.647Z,22.02
2022-08-04T00:31:33.217Z,21.95
2022-08-04T00:33:48.479Z,21.85
2022-08-04T00:36:14.862Z,21.73
2022-08-04T00:38:41.238Z,21.69
2022-08-04T00:41:07.599Z,21.72
2022-08-04T00:43:34.071Z,21.82
2022-08-04T00:46:00.514Z,21.83
2022-08-04T00:48:26.937Z,21.76
2022-08-04T00:50:53.321Z,21.72
2022-08-04T00:53:19.686Z,21.76
2022-08-04T00:55:46.053Z,21.73
2022-08-04T00:58:12.446Z,21.68
2022-08-04T01:00:38.898Z,21.67
2022-08-04T01:03:05.332Z,21.68
2022-08-04T01:05:37.595Z,21.70
2022-08-04T01:07:58.089Z,21.76
2022-08-04T01:10:24.476Z,21.79
2022-08-04T01:12:50.877Z,21.76
2022-08-04T01:15:17.253Z,21.75
2022-08-04T01:17:43.720Z,21.72
2022-08-04T01:20:10.079Z,21.65
2022-08-04T01:22:36.465Z,21.61
2022-08-04T01:25:04.829Z,21.58
2022-08-04T01:27:29.301Z,21.52
2022-08-04T01:29:55.797Z,21.48
2022-08-04T01:32:26.062Z,21.42
2022-08-04T01:34:48.442Z,21.44
2022-08-04T01:37:14.883Z,21.46
2022-08-04T01:39:41.313Z,21.44
2022-08-04T01:42:09.525Z,21.51
2022-08-04T01:44:34.091Z,21.55
2022-08-04T01:47:00.463Z,21.50
2022-08-04T01:49:26.850Z,21.41
2022-08-04T01:51:53.271Z,21.26
2022-08-04T01:54:19.635Z,21.33
2022-08-04T01:56:46.031Z,21.27
2022-08-04T01:59:12.468Z,21.32
2022-08-04T02:01:39.001Z,21.32
2022-08-04T02:04:20.378Z,21.23
2022-08-04T02:06:31.764Z,21.12
2022-08-04T02:08:58.131Z,21.14
2022-08-04T02:11:24.533Z,21.24
2022-08-04T02:13:50.969Z,21.30
2022-08-04T02:16:17.335Z,21.21
2022-08-04T02:18:43.714Z,21.16
2022-08-04T02:21:10.092Z,21.12
2022-08-04T02:23:36.587Z,21.10
2022-08-04T02:26:02.959Z,21.06
2022-08-04T02:28:29.322Z,21.06
2022-08-04T02:30:55.694Z,21.00
2022-08-04T02:33:22.101Z,20.95
2022-08-04T02:35:48.559Z,20.92
2022-08-04T02:38:14.927Z,20.90
2022-08-04T02:40:41.298Z,20.91
2022-08-04T02:43:07.660Z,20.89
2022-08-04T02:45:34.025Z,20.88
2022-08-04T02:48:08.194Z,20.90
2022-08-04T02:50:28.945Z,20.94
2022-08-04T02:52:53.165Z,20.93
2022-08-04T02:55:19.611Z,20.93
2022-08-04T02:57:46.044Z,20.92
2022-08-04T03:00:12.510Z,20.90
2022-08-04T03:02:38.831Z,20.86
2022-08-04T03:05:05.341Z,20.89
2022-08-04T03:07:31.705Z,20.92
2022-08-04T03:09:58.208Z,20.85
2022-08-04T03:12:24.645Z,20.80
2022-08-04T03:14:51.029Z,20.76
2022-08-04T03:17:17.434Z,20.73
2022-08-04T03:19:43.838Z,20.75
2022-08-04T03:22:10.274Z,20.75
2022-08-04T03:24:36.704Z,20.70
2022-08-04T03:27:03.105Z,20.55
2022-08-04T03:29:36.030Z,20.47
2022-08-04T03:31:55.897Z,20.41
2022-08-04T03:34:22.313Z,20.34
2022-08-04T03:36:48.689Z,20.36
2022-08-04T03:39:15.128Z,20.44
2022-08-04T03:41:55.246Z,20.42
2022-08-04T03:44:08.006Z,20.40
2022-08-04T03:46:34.369Z,20.34
2022-08-04T03:49:00.757Z,20.32
2022-08-04T03:51:32.493Z,20.40
2022-08-04T03:53:53.545Z,20.39
2022-08-04T03:56:19.947Z,20.35
2022-08-04T03:58:46.336Z,20.40
2022-08-04T04:01:12.789Z,20.45
2022-08-04T04:03:39.185Z,20.54
2022-08-04T04:06:05.568Z,20.60
2022-08-04T04:08:31.963Z,20.62
2022-08-04T04:10:58.418Z,20.61
2022-08-04T04:13:24.856Z,20.58
2022-08-04T04:15:51.256Z,20.61
2022-08-04T04:18:17.625Z,20.63
2022-08-04T04:20:43.988Z,20.63
2022-08-04T04:23:11.072Z,20.64
2022-08-04T04:25:36.844Z,20.71
2022-08-04T04:28:46.123Z,20.77
2022-08-04T04:30:29.594Z,20.84
2022-08-04T04:32:55.965Z,20.84
2022-08-04T04:35:22.446Z,20.83
2022-08-04T04:37:49.277Z,20.85
2022-08-04T04:40:15.170Z,21.06
2022-08-04T04:42:41.565Z,21.30
2022-08-04T04:45:07.968Z,21.43
2022-08-04T04:48:09.200Z,21.39
2022-08-04T04:50:00.735Z,21.32
2022-08-04T04:52:27.106Z,21.32
2022-08-04T04:54:53.476Z,21.31
2022-08-04T04:57:20.141Z,21.31
2022-08-04T04:59:46.254Z,21.36
2022-08-04T05:02:12.641Z,21.37
2022-08-04T05:04:39.024Z,21.42
2022-08-04T05:07:05.403Z,21.45
2022-08-04T05:09:31.798Z,21.50
2022-08-04T05:11:58.207Z,21.50
2022-08-04T05:14:38.678Z,21.54
2022-08-04T05:16:50.950Z,21.60
2022-08-04T05:19:17.338Z,21.68
2022-08-04T05:21:43.856Z,21.77
2022-08-04T05:24:10.283Z,21.88
2022-08-04T05:26:36.661Z,22.07
2022-08-04T05:29:03.053Z,22.27
2022-08-04T05:31:29.442Z,22.47
2022-08-04T05:33:55.835Z,22.54
2022-08-04T05:36:39.996Z,22.67
2022-08-04T05:38:48.592Z,22.79
2022-08-04T05:41:14.965Z,22.89
2022-08-04T05:43:41.346Z,23.02
2022-08-04T05:46:07.776Z,23.24
2022-08-04T05:48:34.174Z,23.39
2022-08-04T05:51:01.287Z,23.48
2022-08-04T05:53:27.004Z,23.58
2022-08-04T05:55:58.523Z,23.71
2022-08-04T05:58:19.774Z,23.86
2022-08-04T06:00:51.707Z,24.05
2022-08-04T06:03:12.526Z,24.15
2022-08-04T06:05:38.953Z,24.01
2022-08-04T06:08:13.926Z,23.96
2022-08-04T06:10:31.694Z,23.75
2022-08-04T06:12:58.056Z,23.55
2022-08-04T06:15:25.320Z,23.46
2022-08-04T06:19:57.815Z,23.32
2022-08-04T06:20:17.854Z,23.22
2022-08-04T06:22:43.668Z,23.15
2022-08-04T06:25:10.042Z,23.22
2022-08-04T06:27:36.406Z,23.62
2022-08-04T06:30:02.767Z,24.06
2022-08-04T06:32:34.583Z,24.32
2022-08-04T06:34:55.500Z,24.49
2022-08-04T06:37:41.526Z,24.61
2022-08-04T06:39:48.337Z,24.67
2022-08-04T06:42:22.219Z,24.69
2022-08-04T06:44:41.141Z,24.67
2022-08-04T06:47:07.524Z,24.57
2022-08-04T06:49:44.157Z,24.51
2022-08-04T06:52:00.345Z,24.49
2022-08-04T06:54:26.720Z,24.60
2022-08-04T06:56:53.131Z,24.53
2022-08-04T06:59:19.499Z,24.67
2022-08-04T07:01:46.011Z,24.90
2022-08-04T07:04:12.332Z,24.97
2022-08-04T07:06:38.730Z,25.14
2022-08-04T07:09:05.097Z,25.47
2022-08-04T07:11:44.422Z,25.76
2022-08-04T07:13:57.927Z,26.06
2022-08-04T07:16:30.626Z,26.16
2022-08-04T07:18:50.741Z,26.34
2022-08-04T07:21:17.143Z,26.66
2022-08-04T07:23:43.506Z,26.85
2022-08-04T07:26:12.928Z,27.01
2022-08-04T07:28:36.429Z,26.77
2022-08-04T07:31:02.797Z,26.64
2022-08-04T07:33:29.186Z,26.56
2022-08-04T07:36:04.885Z,26.65
2022-08-04T07:38:27.462Z,26.81
2022-08-04T07:40:48.384Z,27.17
2022-08-04T07:43:14.818Z,27.52
2022-08-04T07:45:41.187Z,27.86
2022-08-04T07:48:07.547Z,28.10
2022-08-04T07:50:33.918Z,28.26
2022-08-04T07:53:53.486Z,28.36
2022-08-04T07:55:26.700Z,28.34
2022-08-04T07:57:53.083Z,28.16
2022-08-04T08:00:19.463Z,28.07
2022-08-04T08:02:45.844Z,28.15
2022-08-04T08:05:12.235Z,28.20
2022-08-04T08:07:38.605Z,28.36
2022-08-04T08:10:04.995Z,28.73
2022-08-04T08:12:38.549Z,29.33
2022-08-04T08:14:57.746Z,29.78
2022-08-04T08:17:24.209Z,30.12
2022-08-04T08:19:50.510Z,30.17
2022-08-04T08:22:16.898Z,30.26
2022-08-04T08:24:43.271Z,30.16
2022-08-04T08:27:09.635Z,30.05
2022-08-04T08:29:36.066Z,30.18
2022-08-04T08:32:07.693Z,30.39
2022-08-04T08:34:29.109Z,30.85
2022-08-04T08:36:55.230Z,30.78
2022-08-04T08:39:24.622Z,30.42
2022-08-04T08:41:51.737Z,30.37
2022-08-04T08:44:18.961Z,30.52
2022-08-04T08:46:49.366Z,30.54
2022-08-04T08:49:07.281Z,30.46
2022-08-04T08:51:33.715Z,30.46
2022-08-04T08:54:00.110Z,30.86
2022-08-04T08:56:31.364Z,31.07
2022-08-04T08:58:52.892Z,31.13
2022-08-04T09:01:19.437Z,31.24
2022-08-04T09:03:45.777Z,31.15
2022-08-04T09:06:12.193Z,31.31
2022-08-04T09:08:38.563Z,31.70
2022-08-04T09:11:04.939Z,31.90
2022-08-04T09:13:31.407Z,31.88
2022-08-04T09:15:57.834Z,31.88
2022-08-04T09:18:24.271Z,32.09
2022-08-04T09:20:50.634Z,32.38
2022-08-04T09:23:17.027Z,32.63
2022-08-04T09:25:43.472Z,32.78
2022-08-04T09:28:09.923Z,32.97
2022-08-04T09:30:36.260Z,33.06
2022-08-04T09:33:02.632Z,33.31
2022-08-04T09:35:29.005Z,33.53
2022-08-04T09:37:55.422Z,33.66
2022-08-04T09:40:31.256Z,33.70
2022-08-04T09:42:48.194Z,33.79
2022-08-04T09:45:17.865Z,33.77
2022-08-04T09:47:41.078Z,33.54
2022-08-04T09:50:07.328Z,33.33
2022-08-04T09:52:33.725Z,33.12
2022-08-04T09:55:00.155Z,33.05
2022-08-04T09:57:26.591Z,33.11
2022-08-04T09:59:52.969Z,33.35
2022-08-04T10:02:19.681Z,33.37
2022-08-04T10:04:45.811Z,33.52
2022-08-04T10:07:12.219Z,33.53
2022-08-04T10:09:38.575Z,33.43
2022-08-04T10:12:04.985Z,33.38
2022-08-04T10:14:31.412Z,33.43
2022-08-04T10:16:57.894Z,33.45
2022-08-04T10:19:24.258Z,33.54
2022-08-04T10:21:59.704Z,33.53
2022-08-04T10:24:17.009Z,33.48
2022-08-04T10:26:43.476Z,33.45
2022-08-04T10:29:09.861Z,33.49
2022-08-04T10:31:36.297Z,33.58
2022-08-04T10:34:02.678Z,33.73
2022-08-04T10:36:29.044Z,33.74
2022-08-04T10:38:55.474Z,33.76
2022-08-04T10:41:21.812Z,33.83
2022-08-04T10:43:48.202Z,33.98
2022-08-04T10:46:14.639Z,33.96
2022-08-04T10:48:41.078Z,33.95
2022-08-04T10:51:07.454Z,34.02
2022-08-04T10:53:33.826Z,34.29
2022-08-04T10:56:07.579Z,34.61
2022-08-04T10:58:46.937Z,34.69
2022-08-04T11:00:53.029Z,34.57
2022-08-04T11:03:19.438Z,34.50
2022-08-04T11:05:45.764Z,34.45
2022-08-04T11:08:15.333Z,34.32
2022-08-04T11:10:38.519Z,34.16
2022-08-04T11:13:04.891Z,34.15
2022-08-04T11:15:31.320Z,34.19
2022-08-04T11:17:57.683Z,34.17
2022-08-04T11:20:39.379Z,34.13
2022-08-04T11:22:50.522Z,34.13
2022-08-04T11:25:16.895Z,34.09
2022-08-04T11:27:43.258Z,34.09
2022-08-04T11:30:09.670Z,34.23
2022-08-04T11:32:36.147Z,34.26
2022-08-04T11:35:02.596Z,34.26
2022-08-04T11:37:29.016Z,34.20
2022-08-04T11:39:55.417Z,34.07
2022-08-04T11:42:21.815Z,34.07
2022-08-04T11:44:48.209Z,34.23
2022-08-04T11:47:14.577Z,34.41
2022-08-04T11:49:56.647Z,34.59
2022-08-04T11:52:07.405Z,34.74
2022-08-04T11:54:33.771Z,34.85
2022-08-04T11:57:00.180Z,34.83
2022-08-04T11:59:26.571Z,34.74
2022-08-04T12:01:53.117Z,34.80
2022-08-04T12:04:19.467Z,34.77
2022-08-04T12:06:57.021Z,34.78
2022-08-04T12:09:12.327Z,34.69
2022-08-04T12:11:38.766Z,34.61
2022-08-04T12:14:05.207Z,34.54
2022-08-04T12:16:31.564Z,34.43
2022-08-04T12:18:58.068Z,34.27
2022-08-04T12:21:24.435Z,34.16
2022-08-04T12:23:56.618Z,34.09
2022-08-04T12:26:17.174Z,33.98
2022-08-04T12:31:11.799Z,33.74
2022-08-04T12:33:41.392Z,33.63
2022-08-04T12:36:11.033Z,33.54
2022-08-04T12:38:29.233Z,33.46
2022-08-04T12:40:55.616Z,33.34
2022-08-04T12:43:22.015Z,33.24
2022-08-04T12:45:48.595Z,33.13
2022-08-04T12:48:17.914Z,33.05
2022-08-04T12:50:41.107Z,32.97
2022-08-04T12:53:07.536Z,32.90
2022-08-04T12:55:34.252Z,32.82
2022-08-04T12:58:00.384Z,32.77
2022-08-04T13:00:30.521Z,32.73
2022-08-04T13:02:53.145Z,32.70
2022-08-04T13:05:19.538Z,32.64
2022-08-04T13:07:45.940Z,32.66
2022-08-04T13:10:12.329Z,32.71
2022-08-04T13:12:38.693Z,32.79
2022-08-04T13:15:09.743Z,32.87
2022-08-04T13:17:31.501Z,32.94
2022-08-04T13:19:57.898Z,32.96
2022-08-04T13:22:26.589Z,32.98
2022-08-04T13:24:56.520Z,32.97
2022-08-04T13:27:17.164Z,32.97
2022-08-04T13:29:59.805Z,32.95
2022-08-04T13:32:10.036Z,32.95
2022-08-04T13:34:36.398Z,32.96
2022-08-04T13:37:02.767Z,32.96
2022-08-04T13:39:29.224Z,32.96
2022-08-04T13:41:59.183Z,32.98
2022-08-04T13:44:21.953Z,32.98
2022-08-04T13:46:50.752Z,32.99
2022-08-04T13:49:38.067Z,32.93
2022-08-04T13:51:58.381Z,32.88
2022-08-04T13:54:07.430Z,32.81
2022-08-04T13:56:33.803Z,32.70
2022-08-04T13:59:01.412Z,32.56
2022-08-04T14:01:35.587Z,32.46
2022-08-04T14:03:53.987Z,32.43
2022-08-04T14:06:19.337Z,32.40
2022-08-04T14:08:45.704Z,32.37
2022-08-04T14:12:10.799Z,32.34
2022-08-04T14:13:42.008Z,32.27
2022-08-04T14:16:04.983Z,32.19
2022-08-04T14:18:31.259Z,32.07
2022-08-04T14:20:57.649Z,32.01
2022-08-04T14:23:24.007Z,31.94
2022-08-04T14:25:50.392Z,31.89
2022-08-04T14:28:16.794Z,31.81
2022-08-04T14:30:43.157Z,31.77
2022-08-04T14:34:00.712Z,31.74
2022-08-04T14:35:38.380Z,31.69
2022-08-04T14:38:03.456Z,31.63
2022-08-04T14:40:30.341Z,31.60
2022-08-04T14:42:56.510Z,31.55
2022-08-04T14:45:21.449Z,31.50
2022-08-04T14:47:51.897Z,31.47
2022-08-04T14:50:14.193Z,31.43
2022-08-04T14:52:40.576Z,31.39
2022-08-04T14:55:06.941Z,31.38
2022-08-04T14:57:33.342Z,31.28
2022-08-04T15:00:02.397Z,31.23
2022-08-04T15:02:29.488Z,31.19
2022-08-04T15:04:52.465Z,31.16
2022-08-04T15:07:18.892Z,31.12
2022-08-04T15:09:45.280Z,31.09
2022-08-04T15:12:11.660Z,31.06
2022-08-04T15:14:38.493Z,31.01
2022-08-04T15:17:08.466Z,30.96
2022-08-04T15:19:30.835Z,30.91
2022-08-04T15:21:57.267Z,30.86
2022-08-04T15:24:23.997Z,30.83
2022-08-04T15:26:50.407Z,30.81
2022-08-04T15:29:17.111Z,30.76
2022-08-04T15:32:05.554Z,30.70
2022-08-04T15:34:09.727Z,30.65
2022-08-04T15:36:36.089Z,30.62
2022-08-04T15:39:02.569Z,30.62
2022-08-04T15:41:28.871Z,30.65
2022-08-04T15:43:55.773Z,30.65
2022-08-04T15:46:43.534Z,30.64
2022-08-04T15:48:48.070Z,30.63
2022-08-04T15:51:15.335Z,30.62
2022-08-04T15:54:02.528Z,30.63
2022-08-04T15:56:07.229Z,30.62
2022-08-04T15:58:33.607Z,30.68
2022-08-04T16:01:00.096Z,30.66
2022-08-04T16:03:58.448Z,30.61
2022-08-04T16:05:52.960Z,30.63
2022-08-04T16:08:19.338Z,30.64
2022-08-04T16:10:45.697Z,30.59
2022-08-04T16:13:12.091Z,30.57
2022-08-04T16:15:38.469Z,30.57
2022-08-04T16:18:04.840Z,30.56
2022-08-04T16:20:31.228Z,30.53
2022-08-04T16:22:57.626Z,30.48
2022-08-04T16:25:23.980Z,30.40
2022-08-04T16:27:50.354Z,30.37
2022-08-04T16:30:16.807Z,30.38
2022-08-04T16:32:43.189Z,30.34
2022-08-04T16:35:09.550Z,30.26
2022-08-04T16:37:35.940Z,30.20
2022-08-04T16:40:02.310Z,30.15
2022-08-04T16:42:28.743Z,30.07
2022-08-04T16:44:55.176Z,30.00
2022-08-04T16:47:22.959Z,29.99
2022-08-04T16:49:51.815Z,29.99
2022-08-04T16:52:14.503Z,29.94
2022-08-04T16:54:40.904Z,29.87
2022-08-04T16:57:07.332Z,29.83
2022-08-04T16:59:33.701Z,29.80
2022-08-04T17:02:00.134Z,29.73
2022-08-04T17:04:26.468Z,29.67
2022-08-04T17:06:52.864Z,29.63
2022-08-04T17:09:19.273Z,29.58
2022-08-04T17:11:45.639Z,29.58
2022-08-04T17:14:12.004Z,29.59
2022-08-04T17:16:38.367Z,29.60
2022-08-04T17:19:04.822Z,29.62
2022-08-04T17:21:31.450Z,29.60
2022-08-04T17:24:14.479Z,29.58
2022-08-04T17:26:23.938Z,29.51
2022-08-04T17:28:50.310Z,29.45
2022-08-04T17:31:16.701Z,29.38
2022-08-04T17:33:54.797Z,29.34
2022-08-04T17:36:09.487Z,29.30
2022-08-04T17:38:35.876Z,29.25
2022-08-04T17:41:11.656Z,29.21
2022-08-04T17:44:04.634Z,29.15
2022-08-04T17:45:56.956Z,29.09
2022-08-04T17:50:47.808Z,28.98
2022-08-04T17:53:14.273Z,28.94
2022-08-04T17:55:40.742Z,28.89
2022-08-04T17:58:11.769Z,28.88
2022-08-04T18:00:33.600Z,28.84
2022-08-04T18:03:00.054Z,28.79
2022-08-04T18:05:26.393Z,28.74
2022-08-04T18:08:46.070Z,28.69
2022-08-04T18:10:33.006Z,28.65
2022-08-04T18:12:45.556Z,28.59
2022-08-04T18:15:11.978Z,28.55
2022-08-04T18:18:19.744Z,28.49
2022-08-04T18:20:04.743Z,28.48
2022-08-04T18:22:31.133Z,28.47
2022-08-04T18:24:57.512Z,28.44
2022-08-04T18:27:24.326Z,28.41
2022-08-04T18:30:34.014Z,28.36
2022-08-04T18:32:16.726Z,28.35
2022-08-04T18:34:54.925Z,28.33
2022-08-04T18:38:06.492Z,28.32
2022-08-04T18:42:04.154Z,28.28
2022-08-04T18:44:28.649Z,28.24
2022-08-04T18:46:55.793Z,28.19
2022-08-04T18:50:59.272Z,28.12
2022-08-04T18:51:49.011Z,28.05
2022-08-04T18:54:14.318Z,27.98
2022-08-04T18:56:40.701Z,27.94
2022-08-04T18:59:10.148Z,27.87
2022-08-04T19:02:09.090Z,27.83
2022-08-04T19:04:00.142Z,27.78
2022-08-04T19:06:27.564Z,27.77
2022-08-04T19:08:52.815Z,27.75
2022-08-04T19:11:37.836Z,27.71
2022-08-04T19:13:45.544Z,27.62
2022-08-04T19:16:16.945Z,27.54
2022-08-04T19:18:38.327Z,27.50
2022-08-04T19:21:05.209Z,27.47
2022-08-04T19:24:10.955Z,27.43
2022-08-04T19:26:02.582Z,27.42
2022-08-04T19:28:23.853Z,27.41
2022-08-04T19:30:50.265Z,27.41
2022-08-04T19:33:16.634Z,27.45
2022-08-04T19:35:46.321Z,27.49
2022-08-04T19:38:09.387Z,27.49
2022-08-04T19:40:35.791Z,27.54
2022-08-04T19:43:14.250Z,27.59
2022-08-04T19:45:41.693Z,27.60
2022-08-04T19:48:17.031Z,27.55
2022-08-04T19:50:23.665Z,27.48
2022-08-04T19:52:52.218Z,27.44
2022-08-04T19:55:14.042Z,27.39
2022-08-04T19:57:41.356Z,27.33
2022-08-04T20:00:06.844Z,27.26
2022-08-04T20:02:33.208Z,27.20
2022-08-04T20:04:59.597Z,27.13
2022-08-04T20:07:26.189Z,27.03
2022-08-04T20:09:53.632Z,26.91
2022-08-04T20:12:18.804Z,26.83
2022-08-04T20:14:45.258Z,26.78
2022-08-04T20:17:11.671Z,26.74
2022-08-04T20:19:38.051Z,26.66
2022-08-04T20:22:04.407Z,26.56
2022-08-04T20:24:37.649Z,26.54
2022-08-04T20:26:57.152Z,26.53
2022-08-04T20:29:37.032Z,26.47
2022-08-04T20:31:49.905Z,26.45
2022-08-04T20:34:16.273Z,26.44
2022-08-04T20:36:50.045Z,26.39
2022-08-04T20:39:09.784Z,26.37
2022-08-04T20:41:36.694Z,26.32
2022-08-04T20:44:01.869Z,26.31
2022-08-04T20:46:29.210Z,26.29
2022-08-04T20:48:54.621Z,26.25
2022-08-04T20:51:32.145Z,26.22
2022-08-04T20:53:53.469Z,26.19
2022-08-04T20:56:19.383Z,26.18
2022-08-04T20:58:40.189Z,26.13
2022-08-04T21:01:06.587Z,26.09
2022-08-04T21:03:49.840Z,26.10
2022-08-04T21:05:59.301Z,26.08
2022-08-04T21:08:27.111Z,26.01
2022-08-04T21:10:52.067Z,25.97
2022-08-04T21:13:18.441Z,25.93
2022-08-04T21:15:58.888Z,25.96
2022-08-04T21:18:11.286Z,26.00
2022-08-04T21:20:42.715Z,25.99
2022-08-04T21:23:05.024Z,25.94
2022-08-04T21:25:30.475Z,25.86
2022-08-04T21:27:58.768Z,25.81
2022-08-04T21:30:25.368Z,25.81
2022-08-04T21:32:49.586Z,25.80
2022-08-04T21:35:16.298Z,25.78
2022-08-04T21:37:58.165Z,25.79
2022-08-04T21:40:14.504Z,25.73
2022-08-04T21:42:35.191Z,25.65
2022-08-04T21:45:03.445Z,25.55
2022-08-04T21:47:45.802Z,25.56
2022-08-04T21:52:20.822Z,25.63
2022-08-04T21:54:47.196Z,25.60
2022-08-04T21:57:13.691Z,25.57
2022-08-04T21:59:45.310Z,25.50
2022-08-04T22:02:06.549Z,25.37
2022-08-04T22:04:32.823Z,25.29
2022-08-04T22:07:02.766Z,25.27
2022-08-04T22:09:25.613Z,25.25
2022-08-04T22:11:52.268Z,25.24
2022-08-04T22:14:27.360Z,25.22
2022-08-04T22:16:44.736Z,25.17
2022-08-04T22:19:11.110Z,25.12
2022-08-04T22:21:39.256Z,25.09
2022-08-04T22:24:03.866Z,25.04
2022-08-04T22:26:30.271Z,25.09
2022-08-04T22:28:56.630Z,25.09
2022-08-04T22:31:24.758Z,25.05
2022-08-04T22:33:54.763Z,24.99
2022-08-04T22:36:15.777Z,24.92
2022-08-04T22:38:48.605Z,24.88
2022-08-04T22:41:08.519Z,24.88
2022-08-04T22:43:35.010Z,24.89
2022-08-04T22:46:01.811Z,24.89
2022-08-04T22:48:27.755Z,24.82
2022-08-04T22:50:54.175Z,24.78
2022-08-04T22:53:20.530Z,24.75
2022-08-04T22:56:06.880Z,24.70
2022-08-04T22:58:13.384Z,24.67
2022-08-04T23:00:40.137Z,24.62
2022-08-04T23:03:06.121Z,24.61
2022-08-04T23:05:35.723Z,24.60
2022-08-04T23:07:58.844Z,24.61
2022-08-04T23:10:25.226Z,24.61
2022-08-04T23:12:51.581Z,24.61
2022-08-04T23:15:18.174Z,24.58
2022-08-04T23:17:47.979Z,24.58
2022-08-04T23:20:22.899Z,24.52
2022-08-04T23:22:41.836Z,24.47
2022-08-04T23:25:03.970Z,24.42
2022-08-04T23:27:33.859Z,24.37
2022-08-04T23:29:56.271Z,24.39
2022-08-04T23:32:22.699Z,24.40
2022-08-04T23:34:49.061Z,24.39
2022-08-04T23:37:15.809Z,24.36
2022-08-04T23:39:42.302Z,24.31
2022-08-04T23:42:08.168Z,24.29
2022-08-04T23:44:34.532Z,24.27
2022-08-04T23:47:00.988Z,24.13
2022-08-04T23:49:43.888Z,24.04
2022-08-04T23:51:54.299Z,24.07
2022-08-04T23:54:25.854Z,24.10
2022-08-04T23:56:46.393Z,24.12
2022-08-04T23:59:18.015Z,24.07
